createdAt,value
2019-03-03T00:01:52.309Z,20.10
2019-03-03T00:04:20.660Z,20.10
2019-03-03T00:06:49.176Z,20.10
2019-03-03T00:09:19.057Z,20.00
2019-03-03T00:11:49.803Z,20.10
2019-03-03T00:14:18.141Z,20.00
2019-03-03T00:16:46.643Z,20.00
2019-03-03T00:19:14.957Z,20.00
2019-03-03T00:21:43.327Z,20.00
2019-03-03T00:24:11.640Z,20.00
2019-03-03T00:26:42.157Z,20.00
2019-03-03T00:29:12.877Z,20.00
2019-03-03T00:31:45.400Z,20.00
2019-03-03T00:34:13.834Z,19.90
2019-03-03T00:37:01.941Z,19.90
2019-03-03T00:39:32.533Z,19.90
2019-03-03T00:42:20.317Z,19.90
2019-03-03T00:44:56.365Z,20.00
2019-03-03T00:47:26.368Z,19.90
2019-03-03T00:49:57.426Z,19.90
2019-03-03T00:52:42.405Z,19.90
2019-03-03T00:55:16.103Z,19.90
2019-03-03T00:57:52.184Z,19.80
2019-03-03T01:00:43.568Z,19.80
2019-03-03T01:03:16.756Z,19.80
2019-03-03T01:05:46.800Z,19.80
2019-03-03T01:08:16.744Z,19.80
2019-03-03T01:10:52.548Z,19.80
2019-03-03T01:13:25.506Z,19.80
2019-03-03T01:15:58.858Z,19.80
2019-03-03T01:18:41.196Z,19.80
2019-03-03T01:21:29.999Z,19.80
2019-03-03T01:24:17.057Z,19.80
2019-03-03T01:26:49.852Z,19.70
2019-03-03T01:29:19.691Z,19.70
2019-03-03T01:31:48.335Z,19.80
2019-03-03T01:34:17.148Z,19.80
2019-03-03T01:36:45.466Z,19.70
2019-03-03T01:39:15.509Z,19.70
2019-03-03T01:41:43.865Z,19.70
2019-03-03T01:44:12.287Z,19.70
2019-03-03T01:46:40.693Z,19.70
2019-03-03T01:49:09.066Z,19.70
2019-03-03T01:51:37.417Z,19.70
2019-03-03T01:54:06.257Z,19.70
2019-03-03T01:56:34.629Z,19.70
2019-03-03T01:59:03.159Z,19.70
2019-03-03T02:01:31.543Z,19.60
2019-03-03T02:04:00.088Z,19.60
2019-03-03T02:06:28.483Z,19.60
2019-03-03T02:09:00.204Z,19.60
2019-03-03T02:11:28.531Z,19.60
2019-03-03T02:13:59.844Z,19.60
2019-03-03T02:16:28.226Z,19.60
2019-03-03T02:18:56.681Z,19.60
2019-03-03T02:21:25.217Z,19.60
2019-03-03T02:23:54.560Z,19.60
2019-03-03T02:26:28.954Z,19.60
2019-03-03T02:28:57.486Z,19.50
2019-03-03T02:31:28.579Z,19.60
2019-03-03T02:34:00.303Z,19.50
2019-03-03T02:36:29.328Z,19.50
2019-03-03T02:38:57.699Z,19.50
2019-03-03T02:41:26.074Z,19.50
2019-03-03T02:43:54.356Z,19.50
2019-03-03T02:46:22.736Z,19.50
2019-03-03T02:48:51.289Z,19.50
2019-03-03T02:51:19.664Z,19.50
2019-03-03T02:53:48.168Z,19.50
2019-03-03T02:56:16.679Z,19.50
2019-03-03T02:58:44.974Z,19.50
2019-03-03T03:01:14.909Z,19.50
2019-03-03T03:03:43.278Z,19.50
2019-03-03T03:06:16.018Z,19.50
2019-03-03T03:08:46.083Z,19.50
2019-03-03T03:11:16.161Z,19.50
2019-03-03T03:13:46.166Z,19.40
2019-03-03T03:16:21.314Z,19.40
2019-03-03T03:18:53.055Z,19.40
2019-03-03T03:21:23.523Z,19.40
2019-03-03T03:23:59.501Z,19.40
2019-03-03T03:26:35.608Z,19.40
2019-03-03T03:29:14.550Z,19.40
2019-03-03T03:31:53.604Z,19.40
2019-03-03T03:34:32.321Z,19.30
2019-03-03T03:37:08.307Z,19.40
2019-03-03T03:39:56.943Z,19.30
2019-03-03T03:42:39.099Z,19.40
2019-03-03T03:45:28.110Z,19.30
2019-03-03T03:47:58.137Z,19.30
2019-03-03T03:50:31.056Z,19.30
2019-03-03T03:53:04.014Z,19.30
2019-03-03T03:55:38.346Z,19.30
2019-03-03T03:58:08.803Z,19.30
2019-03-03T04:00:55.342Z,19.20
2019-03-03T04:03:34.525Z,19.30
2019-03-03T04:06:16.316Z,19.30
2019-03-03T04:08:49.301Z,19.30
2019-03-03T04:11:31.277Z,19.20
2019-03-03T04:14:03.982Z,19.20
2019-03-03T04:16:47.715Z,19.20
2019-03-03T04:19:21.831Z,19.20
2019-03-03T04:21:51.782Z,19.20
2019-03-03T04:24:39.101Z,19.20
2019-03-03T04:27:11.915Z,19.20
2019-03-03T04:29:58.397Z,19.20
2019-03-03T04:32:37.183Z,19.20
2019-03-03T04:35:25.916Z,19.20
2019-03-03T04:38:16.186Z,19.20
2019-03-03T04:40:46.746Z,19.20
2019-03-03T04:43:29.073Z,19.20
2019-03-03T04:46:05.440Z,19.20
2019-03-03T04:48:36.057Z,19.20
2019-03-03T04:54:01.359Z,19.10
2019-03-03T04:56:31.435Z,19.10
2019-03-03T04:59:04.097Z,19.10
2019-03-03T05:01:43.632Z,19.10
2019-03-03T05:04:30.658Z,19.10
2019-03-03T05:07:12.390Z,19.10
2019-03-03T05:09:51.099Z,19.10
2019-03-03T05:12:21.046Z,19.10
2019-03-03T05:14:50.976Z,19.10
2019-03-03T05:17:27.130Z,19.10
2019-03-03T05:19:57.074Z,19.10
2019-03-03T05:22:30.443Z,19.00
2019-03-03T05:24:59.162Z,19.10
2019-03-03T05:27:27.762Z,19.10
2019-03-03T05:29:56.552Z,19.00
2019-03-03T05:32:25.830Z,19.00
2019-03-03T05:34:54.197Z,19.00
2019-03-03T05:37:22.845Z,19.00
2019-03-03T05:39:51.214Z,19.00
2019-03-03T05:42:22.473Z,19.10
2019-03-03T05:44:50.845Z,19.10
2019-03-03T05:47:21.131Z,19.00
2019-03-03T05:49:49.847Z,19.00
2019-03-03T05:52:18.466Z,19.00
2019-03-03T05:54:50.314Z,19.00
2019-03-03T05:57:21.592Z,19.00
2019-03-03T05:59:49.954Z,19.00
2019-03-03T06:02:20.557Z,19.00
2019-03-03T06:04:54.003Z,19.00
2019-03-03T06:07:22.368Z,19.00
2019-03-03T06:09:50.741Z,19.00
2019-03-03T06:12:19.324Z,19.00
2019-03-03T06:14:47.839Z,19.00
2019-03-03T06:17:17.416Z,19.00
2019-03-03T06:19:47.670Z,18.90
2019-03-03T06:22:16.145Z,19.00
2019-03-03T06:24:44.499Z,19.00
2019-03-03T06:27:13.435Z,18.90
2019-03-03T06:29:43.350Z,18.90
2019-03-03T06:32:11.658Z,18.90
2019-03-03T06:34:41.435Z,18.90
2019-03-03T06:37:20.377Z,18.90
2019-03-03T06:39:41.845Z,19.00
2019-03-03T06:42:10.481Z,18.90
2019-03-03T06:44:38.821Z,19.00
2019-03-03T06:47:07.267Z,19.00
2019-03-03T06:49:35.639Z,19.00
2019-03-03T06:52:04.088Z,19.00
2019-03-03T06:54:32.561Z,19.00
2019-03-03T06:57:01.275Z,19.00
2019-03-03T06:59:29.589Z,19.10
2019-03-03T07:01:59.675Z,19.10
2019-03-03T07:04:28.169Z,19.10
2019-03-03T07:06:56.590Z,19.20
2019-03-03T07:09:24.961Z,19.20
2019-03-03T07:11:55.580Z,19.20
2019-03-03T07:14:24.273Z,19.20
2019-03-03T07:16:52.895Z,19.30
2019-03-03T07:19:21.309Z,19.30
2019-03-03T07:21:49.771Z,19.30
2019-03-03T07:24:18.221Z,19.30
2019-03-03T07:26:46.628Z,19.30
2019-03-03T07:29:18.744Z,19.40
2019-03-03T07:31:47.135Z,19.40
2019-03-03T07:34:20.426Z,19.40
2019-03-03T07:36:49.001Z,19.40
2019-03-03T07:39:18.194Z,19.40
2019-03-03T07:41:46.510Z,19.40
2019-03-03T07:44:14.876Z,19.40
2019-03-03T07:46:43.865Z,19.40
2019-03-03T07:49:12.830Z,19.50
2019-03-03T07:51:41.592Z,19.40
2019-03-03T07:54:10.054Z,19.40
2019-03-03T07:56:38.803Z,19.50
2019-03-03T07:59:07.368Z,19.40
2019-03-03T08:01:37.036Z,19.40
2019-03-03T08:04:05.372Z,19.50
2019-03-03T08:06:34.814Z,19.50
2019-03-03T08:09:04.500Z,19.50
2019-03-03T08:11:33.200Z,19.50
2019-03-03T08:14:01.858Z,19.50
2019-03-03T08:16:30.224Z,19.50
2019-03-03T08:18:59.134Z,19.50
2019-03-03T08:21:27.484Z,19.50
2019-03-03T08:23:55.886Z,19.50
2019-03-03T08:26:24.170Z,19.50
2019-03-03T08:28:52.653Z,19.50
2019-03-03T08:31:25.600Z,19.60
2019-03-03T08:33:54.817Z,19.50
2019-03-03T08:36:23.134Z,19.60
2019-03-03T08:38:51.520Z,19.60
2019-03-03T08:41:19.818Z,19.60
2019-03-03T08:43:49.820Z,19.60
2019-03-03T08:46:19.908Z,19.60
2019-03-03T08:48:49.856Z,19.60
2019-03-03T08:51:31.930Z,19.60
2019-03-03T08:54:13.150Z,19.70
2019-03-03T08:56:52.514Z,19.60
2019-03-03T08:59:34.871Z,19.60
2019-03-03T09:02:20.204Z,19.70
2019-03-03T09:04:50.312Z,19.70
2019-03-03T09:07:23.244Z,19.70
2019-03-03T09:10:02.260Z,19.70
2019-03-03T09:12:47.350Z,19.70
2019-03-03T09:15:32.324Z,19.70
2019-03-03T09:18:04.760Z,19.70
2019-03-03T09:20:34.785Z,19.70
2019-03-03T09:23:08.666Z,19.80
2019-03-03T09:25:44.466Z,19.70
2019-03-03T09:28:26.249Z,19.70
2019-03-03T09:31:12.574Z,19.70
2019-03-03T09:33:59.950Z,19.70
2019-03-03T09:36:32.823Z,19.70
2019-03-03T09:39:03.010Z,19.80
2019-03-03T09:41:33.005Z,19.80
2019-03-03T09:44:04.902Z,19.80
2019-03-03T09:46:43.562Z,19.80
2019-03-03T09:49:17.229Z,19.80
2019-03-03T09:51:50.759Z,19.80
2019-03-03T09:54:21.973Z,19.80
2019-03-03T09:56:59.395Z,19.80
2019-03-03T09:59:46.338Z,19.80
2019-03-03T10:02:22.217Z,19.80
2019-03-03T10:05:09.022Z,19.80
2019-03-03T10:07:56.013Z,19.90
2019-03-03T10:10:29.727Z,19.80
2019-03-03T10:13:19.715Z,19.80
2019-03-03T10:15:49.690Z,19.90
2019-03-03T10:18:29.609Z,19.80
2019-03-03T10:21:05.998Z,19.80
2019-03-03T10:23:40.129Z,19.80
2019-03-03T10:26:12.939Z,19.90
2019-03-03T10:28:45.789Z,19.90
2019-03-03T10:31:34.995Z,19.80
2019-03-03T10:34:21.885Z,19.90
2019-03-03T10:36:52.691Z,19.90
2019-03-03T10:39:22.674Z,19.90
2019-03-03T10:41:58.866Z,19.80
2019-03-03T10:44:29.239Z,19.90
2019-03-03T10:47:11.176Z,19.90
2019-03-03T10:49:43.752Z,19.90
2019-03-03T10:52:22.993Z,19.90
2019-03-03T10:55:11.071Z,19.90
2019-03-03T10:57:41.813Z,19.90
2019-03-03T11:00:19.587Z,19.90
2019-03-03T11:03:05.824Z,19.90
2019-03-03T11:05:45.031Z,19.90
2019-03-03T11:08:34.091Z,19.90
2019-03-03T11:11:20.379Z,19.90
2019-03-03T11:14:08.414Z,19.90
2019-03-03T11:16:38.608Z,19.90
2019-03-03T11:19:08.575Z,19.90
2019-03-03T11:21:38.908Z,19.90
2019-03-03T11:24:17.682Z,19.90
2019-03-03T11:27:00.174Z,19.90
2019-03-03T11:29:45.855Z,19.90
2019-03-03T11:32:16.416Z,19.90
2019-03-03T11:35:01.597Z,19.90
2019-03-03T11:37:31.614Z,19.90
2019-03-03T11:40:17.941Z,20.00
2019-03-03T11:42:47.952Z,19.90
2019-03-03T11:45:23.963Z,20.00
2019-03-03T11:48:03.607Z,20.00
2019-03-03T11:50:28.701Z,19.90
2019-03-03T11:53:08.105Z,19.90
2019-03-03T11:55:38.229Z,19.90
2019-03-03T11:58:11.121Z,20.00
2019-03-03T12:00:41.195Z,20.00
2019-03-03T12:03:15.871Z,20.00
2019-03-03T12:05:48.039Z,20.00
2019-03-03T12:08:23.945Z,20.00
2019-03-03T12:11:12.266Z,20.00
2019-03-03T12:13:57.407Z,20.00
2019-03-03T12:16:43.605Z,20.00
2019-03-03T12:19:16.154Z,20.00
2019-03-03T12:21:55.877Z,20.00
2019-03-03T12:24:25.828Z,20.00
2019-03-03T12:27:01.678Z,20.00
2019-03-03T12:29:48.075Z,20.00
2019-03-03T12:32:34.521Z,20.00
2019-03-03T12:35:10.300Z,20.00
2019-03-03T12:37:43.089Z,20.00
2019-03-03T12:40:16.454Z,20.00
2019-03-03T12:42:46.533Z,20.00
2019-03-03T12:45:22.854Z,20.00
2019-03-03T12:48:04.589Z,20.00
2019-03-03T12:50:50.994Z,20.00
2019-03-03T12:53:37.115Z,20.60
2019-03-03T12:56:13.314Z,20.10
2019-03-03T12:58:44.578Z,20.10
2019-03-03T13:01:27.559Z,20.10
2019-03-03T13:04:03.483Z,20.10
2019-03-03T13:06:36.314Z,20.20
2019-03-03T13:09:09.144Z,20.20
2019-03-03T13:11:51.853Z,20.20
2019-03-03T13:14:44.700Z,20.20
2019-03-03T13:17:20.399Z,20.20
2019-03-03T13:19:59.753Z,20.30
2019-03-03T13:22:44.427Z,20.30
2019-03-03T13:25:19.818Z,20.30
2019-03-03T13:27:53.473Z,20.30
2019-03-03T13:30:23.543Z,20.30
2019-03-03T13:32:56.213Z,20.30
2019-03-03T13:35:43.953Z,20.30
2019-03-03T13:38:21.249Z,20.30
2019-03-03T13:40:56.269Z,20.40
2019-03-03T13:43:26.427Z,20.40
2019-03-03T13:45:54.987Z,20.40
2019-03-03T13:48:23.563Z,20.40
2019-03-03T13:50:52.162Z,20.40
2019-03-03T13:53:20.664Z,20.40
2019-03-03T13:55:56.245Z,20.50
2019-03-03T13:58:30.016Z,20.50
2019-03-03T14:01:01.674Z,20.50
2019-03-03T14:03:30.388Z,20.50
2019-03-03T14:05:59.762Z,20.50
2019-03-03T14:08:30.352Z,20.50
2019-03-03T14:10:59.188Z,20.50
2019-03-03T14:13:27.591Z,20.50
2019-03-03T14:15:56.941Z,20.50
2019-03-03T14:18:25.994Z,20.50
2019-03-03T14:20:54.707Z,20.50
2019-03-03T14:23:23.543Z,20.50
2019-03-03T14:25:53.608Z,20.60
2019-03-03T14:28:22.551Z,20.60
2019-03-03T14:30:53.889Z,20.50
2019-03-03T14:33:25.118Z,20.60
2019-03-03T14:35:54.589Z,20.60
2019-03-03T14:38:26.993Z,20.60
2019-03-03T14:40:59.064Z,20.60
2019-03-03T14:43:27.606Z,20.60
2019-03-03T14:45:58.183Z,20.60
2019-03-03T14:48:32.395Z,20.60
2019-03-03T14:51:03.854Z,20.60
2019-03-03T14:53:32.853Z,20.60
2019-03-03T14:56:02.660Z,20.60
2019-03-03T14:58:31.620Z,20.60
2019-03-03T15:01:00.715Z,20.60
2019-03-03T15:03:29.925Z,20.60
2019-03-03T15:06:00.533Z,20.60
2019-03-03T15:08:29.657Z,20.60
2019-03-03T15:11:00.513Z,20.60
2019-03-03T15:13:31.528Z,20.60
2019-03-03T15:16:00.149Z,20.60
2019-03-03T15:18:31.789Z,20.60
2019-03-03T15:21:02.932Z,20.60
2019-03-03T15:23:32.132Z,20.60
2019-03-03T15:26:03.911Z,20.60
2019-03-03T15:28:34.234Z,20.60
2019-03-03T15:31:05.684Z,20.60
2019-03-03T15:33:36.573Z,20.60
2019-03-03T15:36:05.886Z,20.60
2019-03-03T15:38:38.704Z,20.60
2019-03-03T15:41:09.723Z,20.60
2019-03-03T15:43:41.356Z,20.60
2019-03-03T15:46:13.285Z,20.60
2019-03-03T15:48:41.867Z,20.60
2019-03-03T15:51:12.437Z,20.60
2019-03-03T15:53:43.304Z,20.50
2019-03-03T15:56:14.575Z,20.60
2019-03-03T15:58:44.065Z,20.60
2019-03-03T16:01:14.359Z,20.50
2019-03-03T16:03:45.656Z,20.50
2019-03-03T16:06:19.601Z,20.50
2019-03-03T16:08:49.868Z,20.50
2019-03-03T16:11:18.397Z,20.50
2019-03-03T16:13:49.671Z,20.50
2019-03-03T16:16:20.111Z,20.50
2019-03-03T16:18:52.219Z,20.50
2019-03-03T16:21:22.948Z,20.50
2019-03-03T16:23:52.619Z,20.50
2019-03-03T16:26:24.907Z,20.50
2019-03-03T16:28:55.692Z,20.50
2019-03-03T16:31:25.021Z,20.50
2019-03-03T16:33:55.582Z,20.50
2019-03-03T16:36:24.997Z,20.50
2019-03-03T16:38:55.405Z,20.50
2019-03-03T16:41:24.023Z,20.50
2019-03-03T16:43:53.779Z,20.50
2019-03-03T16:46:22.915Z,20.50
2019-03-03T16:48:57.288Z,20.50
2019-03-03T16:51:26.783Z,20.50
2019-03-03T16:53:56.339Z,20.50
2019-03-03T16:56:25.320Z,20.50
2019-03-03T16:58:57.639Z,20.50
2019-03-03T17:01:26.955Z,20.40
2019-03-03T17:04:08.594Z,20.50
2019-03-03T17:06:57.378Z,20.50
2019-03-03T17:09:25.888Z,20.50
2019-03-03T17:11:53.715Z,20.50
2019-03-03T17:14:22.162Z,20.50
2019-03-03T17:16:51.818Z,20.50
2019-03-03T17:19:20.376Z,20.50
2019-03-03T17:21:48.735Z,20.50
2019-03-03T17:24:17.034Z,20.50
2019-03-03T17:26:45.322Z,20.50
2019-03-03T17:29:13.602Z,20.50
2019-03-03T17:31:41.941Z,20.50
2019-03-03T17:34:12.998Z,20.50
2019-03-03T17:36:40.512Z,20.50
2019-03-03T17:39:26.570Z,20.50
2019-03-03T17:41:55.022Z,20.50
2019-03-03T17:44:23.296Z,20.50
2019-03-03T17:46:51.859Z,20.50
2019-03-03T17:49:20.221Z,20.50
2019-03-03T17:51:49.766Z,20.50
2019-03-03T17:54:18.072Z,20.50
2019-03-03T17:56:46.408Z,20.50
2019-03-03T17:59:14.695Z,20.60
2019-03-03T18:01:43.258Z,20.60
2019-03-03T18:04:11.543Z,20.60
2019-03-03T18:06:39.818Z,20.50
2019-03-03T18:09:08.109Z,20.60
2019-03-03T18:11:36.657Z,20.60
2019-03-03T18:14:05.142Z,20.60
2019-03-03T18:16:33.420Z,20.60
2019-03-03T18:19:01.777Z,20.60
2019-03-03T18:21:30.061Z,20.60
2019-03-03T18:23:58.488Z,20.60
2019-03-03T18:26:27.154Z,20.60
2019-03-03T18:28:55.456Z,20.60
2019-03-03T18:31:23.805Z,20.60
2019-03-03T18:33:52.329Z,20.60
2019-03-03T18:36:20.786Z,20.60
2019-03-03T18:38:49.086Z,20.60
2019-03-03T18:41:17.427Z,20.60
2019-03-03T18:43:45.710Z,20.60
2019-03-03T18:46:13.978Z,20.60
2019-03-03T18:48:42.302Z,20.60
2019-03-03T18:51:10.626Z,20.60
2019-03-03T18:53:38.933Z,20.60
2019-03-03T18:56:07.532Z,20.60
2019-03-03T18:58:35.812Z,20.60
2019-03-03T19:03:10.011Z,20.60
2019-03-03T19:05:38.391Z,20.60
2019-03-03T19:08:07.131Z,20.60
2019-03-03T19:10:38.027Z,20.60
2019-03-03T19:13:06.580Z,20.60
2019-03-03T19:15:35.031Z,20.60
2019-03-03T19:18:03.494Z,20.60
2019-03-03T19:20:31.855Z,20.60
2019-03-03T19:23:00.122Z,20.60
2019-03-03T19:25:28.497Z,20.60
2019-03-03T19:27:56.775Z,20.60
2019-03-03T19:30:29.288Z,20.60
2019-03-03T19:33:18.557Z,20.60
2019-03-03T19:35:46.840Z,20.60
2019-03-03T19:38:15.123Z,20.60
2019-03-03T19:40:43.443Z,20.60
2019-03-03T19:43:11.750Z,20.60
2019-03-03T19:45:42.758Z,20.60
2019-03-03T19:48:11.201Z,20.60
2019-03-03T19:50:39.469Z,20.60
2019-03-03T19:53:07.827Z,20.60
2019-03-03T19:55:36.304Z,20.60
2019-03-03T19:58:04.801Z,20.60
2019-03-03T20:00:40.284Z,20.60
2019-03-03T20:03:08.565Z,20.60
2019-03-03T20:05:36.830Z,20.60
2019-03-03T20:08:06.171Z,20.60
2019-03-03T20:10:34.602Z,20.60
2019-03-03T20:13:02.953Z,20.60
2019-03-03T20:15:31.284Z,20.60
2019-03-03T20:17:59.578Z,20.60
2019-03-03T20:20:27.853Z,20.60
2019-03-03T20:22:56.215Z,20.60
2019-03-03T20:25:24.661Z,20.60
2019-03-03T20:27:53.020Z,20.60
2019-03-03T20:30:22.531Z,20.60
2019-03-03T20:32:50.812Z,20.60
2019-03-03T20:35:19.080Z,20.60
2019-03-03T20:37:47.376Z,20.60
2019-03-03T20:40:24.180Z,20.60
2019-03-03T20:42:54.679Z,20.60
2019-03-03T20:45:25.836Z,20.70
2019-03-03T20:47:54.198Z,20.60
2019-03-03T20:50:22.708Z,20.70
2019-03-03T20:52:51.257Z,20.70
2019-03-03T20:55:27.414Z,20.60
2019-03-03T20:57:55.766Z,20.70
2019-03-03T21:00:31.463Z,20.70
2019-03-03T21:02:59.890Z,20.70
2019-03-03T21:05:28.267Z,20.70
2019-03-03T21:07:56.598Z,20.70
2019-03-03T21:10:35.297Z,20.70
2019-03-03T21:13:03.665Z,20.70
2019-03-03T21:15:32.082Z,20.70
2019-03-03T21:18:00.356Z,20.70
2019-03-03T21:20:28.654Z,20.70
2019-03-03T21:22:56.933Z,20.70
2019-03-03T21:25:25.223Z,20.70
2019-03-03T21:27:53.554Z,20.70
2019-03-03T21:30:25.103Z,20.70
2019-03-03T21:32:53.432Z,20.70
2019-03-03T21:35:21.710Z,20.70
2019-03-03T21:37:49.984Z,20.70
2019-03-03T21:40:23.655Z,20.70
2019-03-03T21:42:52.214Z,20.70
2019-03-03T21:45:24.034Z,20.70
2019-03-03T21:47:52.329Z,20.60
2019-03-03T21:50:26.941Z,20.60
2019-03-03T21:52:55.409Z,20.60
2019-03-03T21:55:23.683Z,20.60
2019-03-03T21:57:51.986Z,20.60
2019-03-03T22:00:31.308Z,20.60
2019-03-03T22:02:59.594Z,20.60
2019-03-03T22:05:27.870Z,20.60
2019-03-03T22:07:56.213Z,20.60
2019-03-03T22:10:31.052Z,20.60
2019-03-03T22:13:01.462Z,20.60
2019-03-03T22:15:29.742Z,20.60
2019-03-03T22:17:58.031Z,20.60
2019-03-03T22:20:26.304Z,20.50
2019-03-03T22:22:54.584Z,20.50
2019-03-03T22:25:22.857Z,20.50
2019-03-03T22:27:51.145Z,20.50
2019-03-03T22:30:19.885Z,20.50
2019-03-03T22:32:48.809Z,20.50
2019-03-03T22:35:17.075Z,20.50
2019-03-03T22:37:45.351Z,20.40
2019-03-03T22:40:16.223Z,20.40
2019-03-03T22:42:44.505Z,20.40
2019-03-03T22:45:15.283Z,20.40
2019-03-03T22:47:43.649Z,20.40
2019-03-03T22:50:15.200Z,20.40
2019-03-03T22:52:43.705Z,20.40
2019-03-03T22:55:13.819Z,20.40
2019-03-03T22:57:42.183Z,20.40
2019-03-03T23:00:27.450Z,20.30
2019-03-03T23:02:55.738Z,20.30
2019-03-03T23:05:29.995Z,20.30
2019-03-03T23:08:01.717Z,20.30
2019-03-03T23:10:52.129Z,20.30
2019-03-03T23:13:35.598Z,20.30
2019-03-03T23:16:18.909Z,20.30
2019-03-03T23:18:56.170Z,20.30
2019-03-03T23:21:50.279Z,20.20
2019-03-03T23:24:38.209Z,20.20
2019-03-03T23:27:06.477Z,20.20
2019-03-03T23:29:34.771Z,20.20
2019-03-03T23:32:03.113Z,20.20
2019-03-03T23:34:31.407Z,20.20
2019-03-03T23:36:59.757Z,20.10
2019-03-03T23:39:28.045Z,20.10
2019-03-03T23:41:56.309Z,20.10
2019-03-03T23:44:24.609Z,20.10
2019-03-03T23:46:52.884Z,20.10
2019-03-03T23:49:21.157Z,20.10
2019-03-03T23:51:49.421Z,20.10
2019-03-03T23:54:17.705Z,20.10
2019-03-03T23:56:45.969Z,20.00
2019-03-03T23:59:14.257Z,20.00
